Tuesday, January 23, 2018, 11:53 PM GMT
Back to Local

CYOW, Ottawa Int'L. Ont.

Location: , , Canada Lat: 45.317
Local Time: 11:53 PM GMT (23:53 GMT) Lon: -75.667
Time Zone: GMT Elev: 380 ft

Show me the last for .
Show Decoded

2018-01-23 23:35 METAR CYOW 232335Z 20007KT 3SM -RA BR OVC034 02/02 A2943 RMK SC8 SLP971 =
2018-01-23 23:17 METAR CYOW 232317Z 18005KT 3SM BR SCT036 OVC050 01/01 A2943 RMK SC3SC5 SLP971 =
2018-01-23 23:09 METAR CYOW 232309Z 17004KT 1 1/2SM R32/5000VP6000FT/U BR OVC051 01/00 A2942 RMK
                 FG4SC4 SLP970 =
2018-01-23 23:00 METAR CYOW 232300Z 17003KT 100V200 3/4SM R32/2800V5500FT/U R07/2800V6000FT/U BR
                 OVC047 01/00 A2942 RMK FG5SC3 SLP970 =
2018-01-23 22:00 METAR CYOW 232200Z 16004KT 1/4SM R32/2600FT/N R07/2600FT/N FG VV002 00/00 A2942
                 RMK FG8 SLP970 =
2018-01-23 21:00 METAR CYOW 232100Z 10007KT 1/4SM R32/2600FT/N R07/2800FT/N FG VV002 00/M00 A2941
                 RMK FG8 SLP966 =
2018-01-23 20:32 METAR CYOW 232032Z 09006KT 3/8SM R32/4000FT/D R07/3000FT/D FG VV002 00/M00 A2942
                 RMK FG8 SLP970 =
2018-01-23 20:00 METAR CYOW 232000Z 08005KT 3/4SM R32/4500FT/U R07/4000V5500FT/U -RA BR OVC002
                 00/M00 A2942 RMK FG6ST2 SLP970 =
2018-01-23 19:00 METAR CYOW 231900Z 05004KT 2SM -RA BR OVC004 00/M00 A2943 RMK FG2ST6 SLP973 =
2018-01-23 18:33 METAR CYOW 231833Z 09004KT 2SM -RA BR OVC005 00/M00 A2945 RMK FG2ST6 SLP980 =
2018-01-23 18:00 METAR CYOW 231800Z 11004KT 2SM BR OVC003 00/M00 A2947 RMK FG1ST7 SLP986 =
2018-01-23 17:00 METAR CYOW 231700Z 11004KT 2SM BR OVC004 M00/M01 A2949 RMK FG1ST7 SLP994 =
2018-01-23 16:00 METAR CYOW 231600Z 10006KT 3SM R07/5500VP6000FT/D BR OVC003 M01/M01 A2952 RMK
                 ST8 PRESRR SLP002 =
2018-01-23 15:00 METAR CYOW 231500Z 09009KT 4SM BR OVC004 M01/M02 A2952 RMK ST8 SLP005 =
2018-01-23 14:52 METAR CYOW 231452Z 09008KT 4SM BR OVC003 M01/M02 A2952 RMK ST8 SLP003 =
2018-01-23 14:00 METAR CYOW 231400Z 07011G16KT 060V120 15SM -FZRA OVC005 M02/M02 A2954 RMK ST8
                 SLP011 =
2018-01-23 13:00 METAR CYOW 231300Z 08011KT 8SM -FZRA OVC004 M02/M03 A2958 RMK ST8 SLP023 =
2018-01-23 12:00 METAR CYOW 231200Z 04003KT 300V050 8SM -FZRA OVC004 M03/M03 A2963 RMK ST8 PRESRR
                 SLP041 =
2018-01-23 11:00 METAR CYOW 231100Z 06012G18KT 6SM -FZRA OVC004 M03/M04 A2961 RMK SC8 PRESFR
                 SLP034 =
2018-01-23 10:00 METAR CYOW 231000Z 07013G19KT 10SM -FZRA BKN005 OVC022 M04/M05 A2965 RMK SC6SC2
                 PRESFR SLP048 =
2018-01-23 09:00 METAR CYOW 230900Z 07011KT 8SM -FZRA OVC005 M04/M05 A2971 RMK SC8 SLP070 =
2018-01-23 08:00 METAR CYOW 230800Z 07015KT 6SM -FZRA OVC005 M04/M05 A2975 RMK SC8 SLP081 =
2018-01-23 07:00 METAR CYOW 230700Z 07013G21KT 8SM -FZRA OVC005 M04/M05 A2977 RMK SC8 SLP090 =
2018-01-23 06:25 METAR CYOW 230625Z 07013G19KT 6SM -FZRA OVC006 M04/M05 A2979 RMK SC8 SLP095 =
2018-01-23 06:00 METAR CYOW 230600Z 08011G19KT 6SM -SN OVC005 M04/M05 A2980 RMK SC8 /S02/ SLP100
                 =
2018-01-23 05:00 METAR CYOW 230500Z 08012G18KT 5SM -SN OVC008 M05/M06 A2984 RMK SC8 PRESFR SLP115
                 =
2018-01-23 04:35 METAR CYOW 230435Z 08011G17KT 3SM -SN OVC010 M05/M07 A2987 RMK SC8 SLP124 =
2018-01-23 04:00 METAR CYOW 230400Z 08009G18KT 4SM -FZRA OVC008 M06/M07 A2989 RMK SC8 SLP132 =
2018-01-23 03:42 METAR CYOW 230342Z 08011G17KT 5SM -FZRA OVC008 M06/M07 A2990 RMK SC8 SLP135 =
2018-01-23 03:00 METAR CYOW 230300Z 08014KT 10SM OVC009 M06/M07 A2992 RMK SC8 SLP142 =
2018-01-23 02:00 METAR CYOW 230200Z 07014G20KT 8SM -SN OVC010 M06/M08 A2996 RMK SC8 /S01/ SLP155
                 =
2018-01-23 01:46 METAR CYOW 230146Z 07013G23KT 5SM -SN DRSN OVC011 M07/M08 A2996 RMK SC8 SLP156 =
2018-01-23 01:00 METAR CYOW 230100Z 07015G21KT 3SM -PL DRSN OVC025 M07/M09 A2999 RMK SC8 PRESFR
                 SLP164 =
2018-01-23 00:00 METAR CYOW 230000Z 07021G28KT 4SM -PL DRSN OVC022 M07/M09 A3004 RMK SC8 /S05/
                 SLP180 =

Support USWX by starting your Amazon purchase here.